VLG3HK GCLP-LEBL
Flight info
| Callsign | VLG3HK |
|---|---|
| Flight time | 2h 40m |
| Altitude | 36000 |
| Route | KORAL UG5 SONSO DCT NIRAL UN871 OSDAM UM985 BARPA DCT XAVIR DCT PIMOS DCT RIXUR DCT PEPAS DCT ARPEX DCT KOSEL DCT BUDIT DCT ETURA DCT TOSTO DCT OLPOS M445 BEGOX DCT VLC L34 CASIM DCT MATEX |
| Aircraft | A320/M-SDE3FGHIRWY/LB1 |
Departure
| Time | 2026-05-04 16:05 |
|---|---|
| Airport | Gran Canaria Airport (GCLP) |
Arrival
| Time | 2026-05-04 18:45 |
|---|---|
| Airport | Josep Tarradellas Barcelona-El Prat Airport (LEBL) |
| Time | Latitude | Longitude | Altitude | Speed | Heading |
|---|---|---|---|---|---|
| 2026-05-04 15:30 | 27.93898 | -15.38800 | 85 ft | 0 kts | 291° |
| 2026-05-04 15:55 | 27.93897 | -15.38797 | 85 ft | 3 kts | 291° |
| 2026-05-04 15:56 | 27.93887 | -15.38769 | 88 ft | 4 kts | 291° |
| 2026-05-04 15:56 | 27.93879 | -15.38746 | 87 ft | 4 kts | 286° |
| 2026-05-04 15:56 | 27.93878 | -15.38719 | 87 ft | 4 kts | 236° |
| 2026-05-04 15:56 | 27.93897 | -15.38702 | 87 ft | 3 kts | 201° |
| 2026-05-04 15:57 | 27.93900 | -15.38701 | 87 ft | 0 kts | 201° |
| 2026-05-04 15:59 | 27.93899 | -15.38701 | 87 ft | 1 kts | 201° |
| 2026-05-04 16:00 | 27.93860 | -15.38718 | 88 ft | 13 kts | 201° |
| 2026-05-04 16:00 | 27.93761 | -15.38763 | 86 ft | 15 kts | 201° |
| 2026-05-04 16:00 | 27.93666 | -15.38805 | 85 ft | 14 kts | 201° |
| 2026-05-04 16:00 | 27.93583 | -15.38842 | 86 ft | 12 kts | 201° |
| 2026-05-04 16:01 | 27.93496 | -15.38874 | 88 ft | 18 kts | 191° |
| 2026-05-04 16:01 | 27.93417 | -15.38781 | 68 ft | 17 kts | 136° |
| 2026-05-04 16:01 | 27.93307 | -15.38798 | 68 ft | 16 kts | 202° |
| 2026-05-04 16:01 | 27.93181 | -15.38853 | 70 ft | 23 kts | 201° |
| 2026-05-04 16:02 | 27.93022 | -15.38932 | 70 ft | 25 kts | 201° |
| 2026-05-04 16:02 | 27.92868 | -15.38999 | 81 ft | 24 kts | 201° |
| 2026-05-04 16:02 | 27.92543 | -15.39143 | 93 ft | 27 kts | 201° |
| 2026-05-04 16:03 | 27.92364 | -15.39222 | 98 ft | 28 kts | 201° |
| 2026-05-04 16:03 | 27.92195 | -15.39295 | 98 ft | 25 kts | 201° |
| 2026-05-04 16:03 | 27.92028 | -15.39300 | 91 ft | 25 kts | 176° |
| 2026-05-04 16:03 | 27.91897 | -15.39217 | 88 ft | 23 kts | 114° |
| 2026-05-04 16:04 | 27.91861 | -15.39116 | 85 ft | 1 kts | 111° |
| 2026-05-04 16:04 | 27.91869 | -15.39009 | 72 ft | 12 kts | 23° |
| 2026-05-04 16:04 | 27.91983 | -15.38960 | 70 ft | 36 kts | 21° |
| 2026-05-04 16:05 | 27.92445 | -15.38758 | 53 ft | 104 kts | 21° |
| 2026-05-04 16:05 | 27.93292 | -15.38383 | 64 ft | 152 kts | 22° |
| 2026-05-04 16:05 | 27.95260 | -15.37454 | 1277 ft | 160 kts | 21° |
| 2026-05-04 16:06 | 27.96335 | -15.37003 | 1824 ft | 170 kts | 21° |
| 2026-05-04 16:06 | 27.99051 | -15.34288 | 2509 ft | 238 kts | 53° |
| 2026-05-04 16:07 | 28.00392 | -15.32165 | 3366 ft | 255 kts | 53° |
| 2026-05-04 16:07 | 28.03645 | -15.27073 | 5602 ft | 277 kts | 51° |
| 2026-05-04 16:08 | 28.04803 | -15.25282 | 6302 ft | 286 kts | 51° |
| 2026-05-04 16:08 | 28.08423 | -15.19704 | 8449 ft | 302 kts | 52° |
| 2026-05-04 16:09 | 28.10961 | -15.15792 | 9885 ft | 314 kts | 52° |
| 2026-05-04 16:09 | 28.13674 | -15.11605 | 10537 ft | 352 kts | 52° |
| 2026-05-04 16:10 | 28.16666 | -15.06984 | 11547 ft | 371 kts | 52° |
| 2026-05-04 16:11 | 28.21357 | -14.99730 | 13410 ft | 389 kts | 52° |
| 2026-05-04 16:11 | 28.22966 | -14.97240 | 14005 ft | 395 kts | 52° |
| 2026-05-04 16:12 | 28.27895 | -14.89582 | 15707 ft | 406 kts | 52° |
| 2026-05-04 16:12 | 28.32953 | -14.81721 | 17487 ft | 416 kts | 52° |
| 2026-05-04 16:13 | 28.36381 | -14.76378 | 18594 ft | 422 kts | 52° |
| 2026-05-04 16:13 | 28.39871 | -14.70946 | 19544 ft | 429 kts | 52° |
| 2026-05-04 16:14 | 28.43420 | -14.65417 | 20473 ft | 437 kts | 52° |
| 2026-05-04 16:14 | 28.47022 | -14.59788 | 21394 ft | 443 kts | 52° |
| 2026-05-04 16:15 | 28.52519 | -14.51184 | 22702 ft | 453 kts | 52° |
| 2026-05-04 16:16 | 28.56259 | -14.45331 | 23538 ft | 460 kts | 52° |
| 2026-05-04 16:16 | 28.61921 | -14.36438 | 24577 ft | 469 kts | 52° |
| 2026-05-04 16:17 | 28.65772 | -14.30376 | 25245 ft | 475 kts | 52° |
| 2026-05-04 16:18 | 28.71629 | -14.21150 | 26202 ft | 484 kts | 51° |
| 2026-05-04 16:18 | 28.73607 | -14.18031 | 26525 ft | 486 kts | 51° |
| 2026-05-04 16:19 | 28.79594 | -14.08567 | 27480 ft | 495 kts | 51° |
| 2026-05-04 16:19 | 28.83632 | -14.02181 | 28154 ft | 498 kts | 51° |
| 2026-05-04 16:20 | 28.89745 | -13.92467 | 29035 ft | 506 kts | 52° |
| 2026-05-04 16:20 | 28.93873 | -13.85894 | 29610 ft | 511 kts | 51° |
| 2026-05-04 16:21 | 29.00116 | -13.75959 | 30352 ft | 520 kts | 51° |
| 2026-05-04 16:22 | 29.04341 | -13.69207 | 30774 ft | 524 kts | 51° |
| 2026-05-04 16:22 | 29.10741 | -13.58989 | 31522 ft | 528 kts | 52° |
| 2026-05-04 16:23 | 29.17140 | -13.48724 | 32448 ft | 527 kts | 51° |
| 2026-05-04 16:24 | 29.25673 | -13.35019 | 33529 ft | 529 kts | 51° |
| 2026-05-04 16:25 | 29.29939 | -13.28134 | 34062 ft | 530 kts | 51° |
| 2026-05-04 16:26 | 29.38479 | -13.14336 | 35058 ft | 530 kts | 52° |
| 2026-05-04 16:26 | 29.44835 | -13.04017 | 35798 ft | 527 kts | 51° |
| 2026-05-04 16:27 | 29.49032 | -12.97206 | 36077 ft | 524 kts | 51° |
| 2026-05-04 16:28 | 29.55326 | -12.86984 | 36070 ft | 521 kts | 52° |
| 2026-05-04 16:29 | 29.69917 | -12.63133 | 36073 ft | 520 kts | 52° |
| 2026-05-04 16:31 | 29.80200 | -12.45971 | 36069 ft | 521 kts | 53° |
| 2026-05-04 16:32 | 29.92354 | -12.25298 | 36078 ft | 520 kts | 52° |
| 2026-05-04 16:33 | 29.99783 | -12.12667 | 36064 ft | 519 kts | 52° |
| 2026-05-04 16:34 | 30.04523 | -12.06506 | 36064 ft | 510 kts | 38° |
| 2026-05-04 16:34 | 30.07084 | -12.03667 | 36057 ft | 511 kts | 38° |
| 2026-05-04 16:35 | 30.22387 | -11.86505 | 36069 ft | 511 kts | 39° |
| 2026-05-04 16:36 | 30.30038 | -11.77908 | 36071 ft | 511 kts | 39° |
| 2026-05-04 16:37 | 30.37647 | -11.69320 | 36070 ft | 511 kts | 39° |
| 2026-05-04 16:38 | 30.47865 | -11.57777 | 36086 ft | 511 kts | 39° |
| 2026-05-04 16:39 | 30.60540 | -11.43402 | 36077 ft | 511 kts | 39° |
| 2026-05-04 16:40 | 30.70695 | -11.31853 | 36075 ft | 511 kts | 39° |
| 2026-05-04 16:41 | 30.83376 | -11.17366 | 36090 ft | 511 kts | 39° |
| 2026-05-04 16:43 | 30.96051 | -11.02837 | 36077 ft | 511 kts | 39° |
| 2026-05-04 16:43 | 31.03646 | -10.94098 | 36060 ft | 511 kts | 39° |
| 2026-05-04 16:45 | 31.18770 | -10.76641 | 36081 ft | 510 kts | 39° |
| 2026-05-04 16:46 | 31.31352 | -10.62071 | 36071 ft | 509 kts | 39° |
| 2026-05-04 16:47 | 31.41387 | -10.50380 | 36078 ft | 508 kts | 39° |
| 2026-05-04 16:48 | 31.51379 | -10.38717 | 36069 ft | 506 kts | 39° |
| 2026-05-04 16:49 | 31.61343 | -10.27055 | 36061 ft | 506 kts | 39° |
| 2026-05-04 16:50 | 31.71266 | -10.15397 | 36084 ft | 505 kts | 39° |
| 2026-05-04 16:51 | 31.78689 | -10.06650 | 36076 ft | 503 kts | 39° |
| 2026-05-04 16:52 | 31.88565 | -9.94995 | 36065 ft | 502 kts | 39° |
| 2026-05-04 16:53 | 31.95970 | -9.86239 | 36062 ft | 502 kts | 39° |
| 2026-05-04 16:54 | 32.05788 | -9.74560 | 36082 ft | 500 kts | 39° |
| 2026-05-04 16:55 | 32.20414 | -9.57105 | 36071 ft | 499 kts | 39° |
| 2026-05-04 16:56 | 32.32599 | -9.42518 | 36085 ft | 498 kts | 40° |
| 2026-05-04 16:57 | 32.39878 | -9.33771 | 36078 ft | 497 kts | 40° |
| 2026-05-04 16:58 | 32.49574 | -9.22092 | 36073 ft | 497 kts | 40° |
| 2026-05-04 17:00 | 32.64040 | -9.04581 | 36096 ft | 495 kts | 41° |
| 2026-05-04 17:01 | 32.76034 | -8.89984 | 36092 ft | 493 kts | 41° |
| 2026-05-04 17:02 | 32.85607 | -8.78307 | 36119 ft | 493 kts | 41° |
| 2026-05-04 17:03 | 32.92748 | -8.69583 | 36097 ft | 492 kts | 41° |
| 2026-05-04 17:03 | 32.99899 | -8.60806 | 36097 ft | 492 kts | 41° |
| 2026-05-04 17:04 | 33.09432 | -8.49091 | 36093 ft | 492 kts | 41° |
| 2026-05-04 17:05 | 33.19000 | -8.37431 | 36092 ft | 488 kts | 35° |
| 2026-05-04 17:06 | 33.27358 | -8.30759 | 36084 ft | 481 kts | 26° |
| 2026-05-04 17:07 | 33.34886 | -8.25078 | 36086 ft | 481 kts | 26° |
| 2026-05-04 17:07 | 33.41469 | -8.20102 | 36112 ft | 481 kts | 26° |
| 2026-05-04 17:08 | 33.49962 | -8.13671 | 36110 ft | 481 kts | 26° |
| 2026-05-04 17:09 | 33.55621 | -8.09380 | 36110 ft | 481 kts | 26° |
| 2026-05-04 17:09 | 33.61285 | -8.05088 | 36105 ft | 481 kts | 26° |
| 2026-05-04 17:10 | 33.75433 | -7.94326 | 36113 ft | 482 kts | 26° |
| 2026-05-04 17:11 | 33.81087 | -7.90006 | 36106 ft | 482 kts | 26° |
| 2026-05-04 17:12 | 33.89569 | -7.83505 | 36107 ft | 482 kts | 26° |
| 2026-05-04 17:13 | 34.03728 | -7.72670 | 36113 ft | 483 kts | 26° |
| 2026-05-04 17:14 | 34.15038 | -7.63940 | 36107 ft | 484 kts | 26° |
| 2026-05-04 17:15 | 34.23556 | -7.57361 | 36098 ft | 484 kts | 26° |
| 2026-05-04 17:16 | 34.34928 | -7.48572 | 36107 ft | 486 kts | 26° |
| 2026-05-04 17:17 | 34.46315 | -7.39717 | 36107 ft | 486 kts | 26° |
| 2026-05-04 17:18 | 34.57702 | -7.30838 | 36120 ft | 487 kts | 25° |
| 2026-05-04 17:19 | 34.69055 | -7.21949 | 36109 ft | 487 kts | 25° |
| 2026-05-04 17:20 | 34.80448 | -7.13025 | 36113 ft | 487 kts | 25° |
| 2026-05-04 17:20 | 34.88974 | -7.06306 | 36105 ft | 486 kts | 25° |
| 2026-05-04 17:21 | 35.00315 | -6.97357 | 36102 ft | 487 kts | 25° |
| 2026-05-04 17:22 | 35.05992 | -6.92862 | 36136 ft | 487 kts | 26° |
| 2026-05-04 17:23 | 35.16424 | -6.84582 | 36110 ft | 486 kts | 26° |
| 2026-05-04 17:24 | 35.24892 | -6.77854 | 36101 ft | 486 kts | 25° |
| 2026-05-04 17:24 | 35.33225 | -6.70714 | 36121 ft | 496 kts | 38° |
| 2026-05-04 17:25 | 35.35567 | -6.67573 | 36122 ft | 503 kts | 48° |
| 2026-05-04 17:26 | 35.42846 | -6.52761 | 36103 ft | 508 kts | 56° |
| 2026-05-04 17:27 | 35.52072 | -6.34311 | 36090 ft | 507 kts | 53° |
| 2026-05-04 17:28 | 35.59562 | -6.19592 | 36127 ft | 508 kts | 54° |
| 2026-05-04 17:29 | 35.70688 | -5.97395 | 36097 ft | 508 kts | 54° |
| 2026-05-04 17:31 | 35.78868 | -5.78075 | 36090 ft | 512 kts | 61° |
| 2026-05-04 17:32 | 35.86658 | -5.58337 | 36056 ft | 512 kts | 60° |
| 2026-05-04 17:33 | 35.93066 | -5.42626 | 36049 ft | 513 kts | 60° |
| 2026-05-04 17:34 | 35.99406 | -5.26839 | 36056 ft | 513 kts | 60° |
| 2026-05-04 17:35 | 36.07554 | -5.07242 | 36036 ft | 512 kts | 59° |
| 2026-05-04 17:36 | 36.10850 | -4.99436 | 36024 ft | 513 kts | 59° |
| 2026-05-04 17:36 | 36.14145 | -4.91683 | 36030 ft | 511 kts | 54° |
| 2026-05-04 17:37 | 36.18497 | -4.84877 | 36022 ft | 500 kts | 40° |
| 2026-05-04 17:37 | 36.23327 | -4.78669 | 36015 ft | 501 kts | 40° |
| 2026-05-04 17:38 | 36.28155 | -4.72451 | 36000 ft | 501 kts | 40° |
| 2026-05-04 17:38 | 36.32973 | -4.66213 | 35999 ft | 501 kts | 40° |
| 2026-05-04 17:39 | 36.40192 | -4.56836 | 35968 ft | 501 kts | 40° |
| 2026-05-04 17:39 | 36.44998 | -4.50580 | 36011 ft | 501 kts | 41° |
| 2026-05-04 17:40 | 36.49815 | -4.44304 | 35996 ft | 501 kts | 40° |
| 2026-05-04 17:40 | 36.54619 | -4.38037 | 35994 ft | 501 kts | 41° |
| 2026-05-04 17:41 | 36.59389 | -4.31790 | 35981 ft | 501 kts | 41° |
| 2026-05-04 17:41 | 36.64185 | -4.25502 | 35973 ft | 501 kts | 41° |
| 2026-05-04 17:42 | 36.68985 | -4.19210 | 35999 ft | 500 kts | 41° |
| 2026-05-04 17:42 | 36.73771 | -4.12916 | 35989 ft | 500 kts | 41° |
| 2026-05-04 17:43 | 36.78552 | -4.06614 | 35990 ft | 500 kts | 41° |
| 2026-05-04 17:43 | 36.83329 | -4.00304 | 35981 ft | 500 kts | 41° |
| 2026-05-04 17:44 | 36.88099 | -3.93993 | 35987 ft | 500 kts | 41° |
| 2026-05-04 17:44 | 36.92867 | -3.87672 | 36001 ft | 500 kts | 41° |
| 2026-05-04 17:45 | 36.97595 | -3.81376 | 36047 ft | 500 kts | 41° |
| 2026-05-04 17:45 | 37.02364 | -3.75033 | 36027 ft | 500 kts | 41° |
| 2026-05-04 17:46 | 37.07130 | -3.68692 | 35992 ft | 500 kts | 41° |
| 2026-05-04 17:46 | 37.11887 | -3.62339 | 35992 ft | 500 kts | 41° |
| 2026-05-04 17:47 | 37.16702 | -3.56052 | 35994 ft | 499 kts | 40° |
| 2026-05-04 17:47 | 37.21564 | -3.49836 | 36021 ft | 499 kts | 40° |
| 2026-05-04 17:48 | 37.26418 | -3.43601 | 36017 ft | 499 kts | 40° |
| 2026-05-04 17:48 | 37.31248 | -3.37342 | 35990 ft | 499 kts | 41° |
| 2026-05-04 17:49 | 37.36071 | -3.31059 | 35995 ft | 500 kts | 41° |
| 2026-05-04 17:49 | 37.40861 | -3.24798 | 35992 ft | 500 kts | 41° |
| 2026-05-04 17:50 | 37.45681 | -3.18500 | 36021 ft | 499 kts | 41° |
| 2026-05-04 17:50 | 37.50503 | -3.12214 | 36003 ft | 499 kts | 41° |
| 2026-05-04 17:51 | 37.55323 | -3.05911 | 36010 ft | 499 kts | 41° |
| 2026-05-04 17:51 | 37.60134 | -2.99595 | 35978 ft | 499 kts | 41° |
| 2026-05-04 17:52 | 37.64939 | -2.93278 | 35975 ft | 499 kts | 41° |
| 2026-05-04 17:52 | 37.69752 | -2.86930 | 36008 ft | 500 kts | 41° |
| 2026-05-04 17:53 | 37.74554 | -2.80583 | 36008 ft | 499 kts | 41° |
| 2026-05-04 17:53 | 37.79350 | -2.74245 | 36008 ft | 499 kts | 41° |
| 2026-05-04 17:54 | 37.84145 | -2.67905 | 36006 ft | 499 kts | 41° |
| 2026-05-04 17:54 | 37.88906 | -2.61567 | 35989 ft | 499 kts | 42° |
| 2026-05-04 17:55 | 37.93686 | -2.55184 | 36017 ft | 499 kts | 42° |
| 2026-05-04 17:55 | 37.98470 | -2.48814 | 36014 ft | 499 kts | 42° |
| 2026-05-04 17:56 | 38.03253 | -2.42442 | 36004 ft | 498 kts | 42° |
| 2026-05-04 17:56 | 38.08050 | -2.36030 | 35996 ft | 505 kts | 41° |
| 2026-05-04 17:57 | 38.12936 | -2.29482 | 35998 ft | 517 kts | 42° |
| 2026-05-04 17:57 | 38.17923 | -2.22773 | 36034 ft | 525 kts | 43° |
| 2026-05-04 17:58 | 38.22722 | -2.15793 | 35991 ft | 526 kts | 49° |
| 2026-05-04 17:58 | 38.27253 | -2.08465 | 35971 ft | 526 kts | 49° |
| 2026-05-04 17:59 | 38.31746 | -2.01204 | 35973 ft | 525 kts | 49° |
| 2026-05-04 18:00 | 38.38522 | -1.90229 | 35944 ft | 526 kts | 49° |
| 2026-05-04 18:00 | 38.43039 | -1.82875 | 35926 ft | 527 kts | 49° |
| 2026-05-04 18:01 | 38.47554 | -1.75506 | 35934 ft | 527 kts | 49° |
| 2026-05-04 18:01 | 38.52073 | -1.68126 | 35938 ft | 528 kts | 49° |
| 2026-05-04 18:02 | 38.58853 | -1.57022 | 35932 ft | 528 kts | 49° |
| 2026-05-04 18:02 | 38.63363 | -1.49615 | 35917 ft | 528 kts | 49° |
| 2026-05-04 18:03 | 38.67874 | -1.42198 | 35956 ft | 528 kts | 49° |
| 2026-05-04 18:03 | 38.72343 | -1.34819 | 35947 ft | 527 kts | 50° |
| 2026-05-04 18:04 | 38.76824 | -1.27405 | 35954 ft | 526 kts | 49° |
| 2026-05-04 18:05 | 38.83550 | -1.16257 | 35928 ft | 526 kts | 50° |
| 2026-05-04 18:05 | 38.88020 | -1.08823 | 35916 ft | 526 kts | 50° |
| 2026-05-04 18:06 | 38.94690 | -0.97692 | 35931 ft | 526 kts | 50° |
| 2026-05-04 18:06 | 38.99138 | -0.90250 | 35924 ft | 525 kts | 50° |
| 2026-05-04 18:07 | 39.03592 | -0.82786 | 35915 ft | 525 kts | 50° |
| 2026-05-04 18:07 | 39.08741 | -0.76303 | 35888 ft | 514 kts | 28° |
| 2026-05-04 18:08 | 39.14943 | -0.71883 | 35906 ft | 509 kts | 22° |
| 2026-05-04 18:08 | 39.21196 | -0.67572 | 35901 ft | 509 kts | 22° |
| 2026-05-04 18:09 | 39.33704 | -0.59003 | 35884 ft | 510 kts | 22° |
| 2026-05-04 18:10 | 39.39984 | -0.54691 | 35941 ft | 511 kts | 23° |
| 2026-05-04 18:10 | 39.46253 | -0.50372 | 35937 ft | 511 kts | 23° |
| 2026-05-04 18:11 | 39.51499 | -0.46742 | 35936 ft | 511 kts | 23° |
| 2026-05-04 18:11 | 39.57733 | -0.42420 | 35934 ft | 511 kts | 23° |
| 2026-05-04 18:12 | 39.64002 | -0.38070 | 35949 ft | 511 kts | 23° |
| 2026-05-04 18:12 | 39.70263 | -0.33720 | 35938 ft | 511 kts | 23° |
| 2026-05-04 18:13 | 39.76537 | -0.29359 | 35932 ft | 511 kts | 23° |
| 2026-05-04 18:14 | 39.85926 | -0.22805 | 35943 ft | 510 kts | 24° |
| 2026-05-04 18:14 | 39.92181 | -0.18418 | 35937 ft | 510 kts | 24° |
| 2026-05-04 18:15 | 40.04686 | -0.09634 | 35963 ft | 510 kts | 24° |
| 2026-05-04 18:16 | 40.10933 | -0.05240 | 35965 ft | 510 kts | 24° |
| 2026-05-04 18:16 | 40.17167 | -0.00841 | 35961 ft | 509 kts | 24° |
| 2026-05-04 18:17 | 40.23400 | 0.03573 | 34077 ft | 515 kts | 24° |
| 2026-05-04 18:17 | 40.26546 | 0.05804 | 33445 ft | 513 kts | 25° |
| 2026-05-04 18:17 | 40.32784 | 0.10238 | 32198 ft | 506 kts | 25° |
| 2026-05-04 18:18 | 40.35849 | 0.12420 | 31847 ft | 496 kts | 25° |
| 2026-05-04 18:18 | 40.38842 | 0.14555 | 31548 ft | 485 kts | 25° |
| 2026-05-04 18:18 | 40.41779 | 0.16646 | 31213 ft | 476 kts | 25° |
| 2026-05-04 18:18 | 40.44700 | 0.18723 | 30374 ft | 481 kts | 25° |
| 2026-05-04 18:19 | 40.50551 | 0.22936 | 29108 ft | 477 kts | 29° |
| 2026-05-04 18:19 | 40.53180 | 0.25567 | 28540 ft | 476 kts | 42° |
| 2026-05-04 18:19 | 40.55349 | 0.28827 | 27968 ft | 473 kts | 55° |
| 2026-05-04 18:20 | 40.56969 | 0.32571 | 27415 ft | 467 kts | 68° |
| 2026-05-04 18:20 | 40.58041 | 0.36583 | 26865 ft | 461 kts | 74° |
| 2026-05-04 18:20 | 40.58991 | 0.40592 | 26290 ft | 458 kts | 75° |
| 2026-05-04 18:20 | 40.59933 | 0.44569 | 25745 ft | 454 kts | 75° |
| 2026-05-04 18:21 | 40.60870 | 0.48528 | 25429 ft | 452 kts | 75° |
| 2026-05-04 18:21 | 40.61789 | 0.52423 | 25193 ft | 451 kts | 75° |
| 2026-05-04 18:21 | 40.62706 | 0.56340 | 24976 ft | 449 kts | 75° |
| 2026-05-04 18:21 | 40.63623 | 0.60267 | 24586 ft | 447 kts | 75° |
| 2026-05-04 18:22 | 40.64533 | 0.64156 | 24209 ft | 443 kts | 75° |
| 2026-05-04 18:22 | 40.65444 | 0.68037 | 23813 ft | 440 kts | 75° |
| 2026-05-04 18:22 | 40.66344 | 0.71881 | 23415 ft | 437 kts | 75° |
| 2026-05-04 18:22 | 40.67236 | 0.75696 | 23007 ft | 434 kts | 75° |
| 2026-05-04 18:23 | 40.68118 | 0.79484 | 22618 ft | 434 kts | 75° |
| 2026-05-04 18:23 | 40.68998 | 0.83278 | 22246 ft | 432 kts | 75° |
| 2026-05-04 18:23 | 40.69877 | 0.87067 | 21870 ft | 430 kts | 75° |
| 2026-05-04 18:23 | 40.70742 | 0.90811 | 21496 ft | 427 kts | 75° |
| 2026-05-04 18:24 | 40.71600 | 0.94541 | 21125 ft | 424 kts | 75° |
| 2026-05-04 18:24 | 40.72448 | 0.98240 | 20760 ft | 420 kts | 75° |
| 2026-05-04 18:24 | 40.73293 | 1.01919 | 20383 ft | 417 kts | 75° |
| 2026-05-04 18:24 | 40.74136 | 1.05573 | 20024 ft | 414 kts | 75° |
| 2026-05-04 18:25 | 40.74970 | 1.09193 | 19676 ft | 412 kts | 75° |
| 2026-05-04 18:25 | 40.75799 | 1.12793 | 19319 ft | 409 kts | 75° |
| 2026-05-04 18:25 | 40.76620 | 1.16377 | 18956 ft | 407 kts | 75° |
| 2026-05-04 18:25 | 40.77436 | 1.19957 | 18613 ft | 407 kts | 75° |
| 2026-05-04 18:26 | 40.78247 | 1.23518 | 18257 ft | 405 kts | 75° |
| 2026-05-04 18:26 | 40.79054 | 1.27061 | 17875 ft | 402 kts | 75° |
| 2026-05-04 18:26 | 40.79857 | 1.30583 | 17525 ft | 399 kts | 75° |
| 2026-05-04 18:26 | 40.80655 | 1.34090 | 17185 ft | 397 kts | 75° |
| 2026-05-04 18:27 | 40.81442 | 1.37569 | 16840 ft | 394 kts | 75° |
| 2026-05-04 18:27 | 40.82221 | 1.41031 | 16495 ft | 392 kts | 75° |
| 2026-05-04 18:27 | 40.82996 | 1.44469 | 16153 ft | 389 kts | 75° |
| 2026-05-04 18:27 | 40.83769 | 1.47889 | 15824 ft | 387 kts | 75° |
| 2026-05-04 18:28 | 40.84527 | 1.51236 | 15489 ft | 384 kts | 75° |
| 2026-05-04 18:28 | 40.85286 | 1.54611 | 15145 ft | 383 kts | 76° |
| 2026-05-04 18:28 | 40.86039 | 1.57977 | 14821 ft | 382 kts | 76° |
| 2026-05-04 18:28 | 40.86790 | 1.61334 | 14485 ft | 380 kts | 75° |
| 2026-05-04 18:29 | 40.87370 | 1.64717 | 14161 ft | 375 kts | 85° |
| 2026-05-04 18:29 | 40.87731 | 1.68115 | 13834 ft | 373 kts | 85° |
| 2026-05-04 18:29 | 40.88091 | 1.71493 | 13479 ft | 370 kts | 84° |
| 2026-05-04 18:29 | 40.88453 | 1.74864 | 13159 ft | 368 kts | 84° |
| 2026-05-04 18:30 | 40.89176 | 1.81535 | 12516 ft | 365 kts | 84° |
| 2026-05-04 18:30 | 40.89531 | 1.84839 | 12206 ft | 362 kts | 84° |
| 2026-05-04 18:30 | 40.89883 | 1.88130 | 11895 ft | 360 kts | 84° |
| 2026-05-04 18:31 | 40.90227 | 1.91350 | 11652 ft | 344 kts | 85° |
| 2026-05-04 18:31 | 40.90600 | 1.94377 | 11306 ft | 330 kts | 76° |
| 2026-05-04 18:31 | 40.91535 | 1.97112 | 11036 ft | 327 kts | 56° |
| 2026-05-04 18:31 | 40.93061 | 1.99308 | 10792 ft | 324 kts | 40° |
| 2026-05-04 18:32 | 40.94748 | 2.01284 | 10541 ft | 323 kts | 40° |
| 2026-05-04 18:32 | 40.96433 | 2.03242 | 10291 ft | 322 kts | 40° |
| 2026-05-04 18:32 | 40.98112 | 2.05188 | 10061 ft | 320 kts | 40° |
| 2026-05-04 18:32 | 40.99783 | 2.07130 | 9846 ft | 317 kts | 40° |
| 2026-05-04 18:33 | 41.01437 | 2.09055 | 9721 ft | 317 kts | 40° |
| 2026-05-04 18:33 | 41.03069 | 2.10959 | 9506 ft | 317 kts | 40° |
| 2026-05-04 18:33 | 41.04719 | 2.12886 | 9133 ft | 315 kts | 40° |
| 2026-05-04 18:33 | 41.06354 | 2.14799 | 8749 ft | 313 kts | 40° |
| 2026-05-04 18:34 | 41.07976 | 2.16700 | 8364 ft | 311 kts | 40° |
| 2026-05-04 18:34 | 41.09596 | 2.18603 | 7989 ft | 309 kts | 40° |
| 2026-05-04 18:34 | 41.11203 | 2.20489 | 7615 ft | 307 kts | 40° |
| 2026-05-04 18:34 | 41.12793 | 2.22356 | 7243 ft | 305 kts | 40° |
| 2026-05-04 18:35 | 41.14375 | 2.24211 | 6882 ft | 302 kts | 40° |
| 2026-05-04 18:35 | 41.15944 | 2.26050 | 6521 ft | 300 kts | 39° |
| 2026-05-04 18:35 | 41.17469 | 2.27929 | 6150 ft | 298 kts | 46° |
| 2026-05-04 18:35 | 41.18702 | 2.30111 | 5761 ft | 295 kts | 57° |
| 2026-05-04 18:36 | 41.19810 | 2.32396 | 5382 ft | 293 kts | 57° |
| 2026-05-04 18:36 | 41.20917 | 2.34661 | 5011 ft | 291 kts | 57° |
| 2026-05-04 18:36 | 41.22011 | 2.36885 | 4629 ft | 282 kts | 57° |
| 2026-05-04 18:36 | 41.23079 | 2.38964 | 4258 ft | 271 kts | 51° |
| 2026-05-04 18:37 | 41.24570 | 2.40500 | 3911 ft | 277 kts | 21° |
| 2026-05-04 18:37 | 41.26400 | 2.41069 | 3483 ft | 264 kts | 4° |
| 2026-05-04 18:37 | 41.28185 | 2.41290 | 3213 ft | 252 kts | 1° |
| 2026-05-04 18:37 | 41.29916 | 2.41468 | 3062 ft | 247 kts | 1° |
| 2026-05-04 18:38 | 41.31620 | 2.41678 | 3022 ft | 245 kts | 2° |
| 2026-05-04 18:38 | 41.33313 | 2.41895 | 3030 ft | 244 kts | 2° |
| 2026-05-04 18:38 | 41.35004 | 2.42097 | 3028 ft | 243 kts | 2° |
| 2026-05-04 18:38 | 41.36683 | 2.42293 | 3030 ft | 243 kts | 2° |
| 2026-05-04 18:39 | 41.38374 | 2.42494 | 3032 ft | 243 kts | 2° |
| 2026-05-04 18:39 | 41.40039 | 2.42427 | 3030 ft | 238 kts | 340° |
| 2026-05-04 18:39 | 41.41404 | 2.41318 | 3034 ft | 228 kts | 304° |
| 2026-05-04 18:39 | 41.41915 | 2.39425 | 3034 ft | 217 kts | 263° |
| 2026-05-04 18:40 | 41.41336 | 2.37643 | 3032 ft | 213 kts | 223° |
| 2026-05-04 18:40 | 41.40134 | 2.36484 | 3031 ft | 214 kts | 217° |
| 2026-05-04 18:40 | 41.39112 | 2.35044 | 3032 ft | 215 kts | 236° |
| 2026-05-04 18:40 | 41.38393 | 2.33317 | 3030 ft | 208 kts | 243° |
| 2026-05-04 18:41 | 41.37813 | 2.31643 | 3024 ft | 195 kts | 244° |
| 2026-05-04 18:41 | 41.37269 | 2.30039 | 3048 ft | 188 kts | 244° |
| 2026-05-04 18:41 | 41.36727 | 2.28442 | 2909 ft | 187 kts | 245° |
| 2026-05-04 18:41 | 41.36202 | 2.26896 | 2697 ft | 183 kts | 246° |
| 2026-05-04 18:42 | 41.35690 | 2.25390 | 2488 ft | 174 kts | 245° |
| 2026-05-04 18:42 | 41.35210 | 2.23970 | 2288 ft | 160 kts | 246° |
| 2026-05-04 18:42 | 41.34760 | 2.22640 | 2024 ft | 156 kts | 245° |
| 2026-05-04 18:42 | 41.34309 | 2.21331 | 1811 ft | 155 kts | 246° |
| 2026-05-04 18:43 | 41.33852 | 2.19985 | 1504 ft | 159 kts | 246° |
| 2026-05-04 18:43 | 41.33417 | 2.18714 | 1293 ft | 145 kts | 245° |
| 2026-05-04 18:43 | 41.33009 | 2.17520 | 1116 ft | 139 kts | 245° |
| 2026-05-04 18:43 | 41.32610 | 2.16356 | 954 ft | 134 kts | 246° |
| 2026-05-04 18:44 | 41.32225 | 2.15228 | 777 ft | 133 kts | 246° |
| 2026-05-04 18:44 | 41.32099 | 2.14852 | 702 ft | 132 kts | 247° |
| 2026-05-04 18:44 | 41.31467 | 2.12991 | 452 ft | 135 kts | 245° |
| 2026-05-04 18:44 | 41.31080 | 2.11865 | 278 ft | 132 kts | 246° |
| 2026-05-04 18:45 | 41.30694 | 2.10743 | 115 ft | 133 kts | 245° |
| 2026-05-04 18:45 | 41.30321 | 2.09642 | 23 ft | 122 kts | 244° |
| 2026-05-04 18:45 | 41.30038 | 2.08818 | 20 ft | 73 kts | 245° |
| 2026-05-04 18:45 | 41.29882 | 2.08357 | 24 ft | 46 kts | 245° |
| 2026-05-04 18:46 | 41.29763 | 2.08033 | 18 ft | 33 kts | 237° |
| 2026-05-04 18:46 | 41.29625 | 2.07857 | 16 ft | 21 kts | 215° |
| 2026-05-04 18:46 | 41.29540 | 2.07776 | 16 ft | 15 kts | 215° |
| 2026-05-04 18:46 | 41.29470 | 2.07704 | 16 ft | 11 kts | 226° |
| 2026-05-04 18:47 | 41.29414 | 2.07703 | 16 ft | 9 kts | 150° |
| 2026-05-04 18:47 | 41.29407 | 2.07761 | 15 ft | 7 kts | 59° |
| 2026-05-04 18:47 | 41.29429 | 2.07812 | 16 ft | 6 kts | 60° |
| 2026-05-04 18:47 | 41.29444 | 2.07857 | 16 ft | 5 kts | 70° |
| 2026-05-04 18:48 | 41.29458 | 2.07903 | 15 ft | 9 kts | 64° |
| 2026-05-04 18:48 | 41.29450 | 2.07980 | 17 ft | 8 kts | 143° |
| 2026-05-04 18:48 | 41.29406 | 2.08005 | 17 ft | 5 kts | 165° |
| 2026-05-04 18:48 | 41.29383 | 2.07993 | 17 ft | 2 kts | 224° |
| 2026-05-04 18:49 | 41.29372 | 2.07965 | 17 ft | 4 kts | 247° |
| 2026-05-04 18:49 | 41.29367 | 2.07948 | 17 ft | 0 kts | 245° |